createdAt,value
2019-06-20T00:10:33.144Z,18.93
2019-06-20T00:20:32.086Z,18.24
2019-06-20T00:30:32.644Z,18.49
2019-06-20T00:40:33.694Z,18.77
2019-06-20T00:50:40.738Z,18.63
2019-06-20T01:00:31.277Z,18.85
2019-06-20T01:20:32.804Z,18.17
2019-06-20T01:30:33.298Z,18.86
2019-06-20T01:40:33.160Z,18.80
2019-06-20T01:50:30.821Z,18.84
2019-06-20T02:00:45.939Z,17.78
2019-06-20T02:10:33.154Z,17.70
2019-06-20T02:20:44.618Z,17.66
2019-06-20T02:30:37.338Z,17.39
2019-06-20T02:40:36.259Z,17.01
2019-06-20T02:50:30.897Z,17.52
2019-06-20T03:10:31.826Z,17.56
2019-06-20T03:20:35.353Z,17.31
2019-06-20T03:30:37.439Z,16.97
2019-06-20T03:35:36.405Z,17.19
2019-06-20T03:40:33.125Z,17.18
2019-06-20T03:45:30.719Z,17.28
2019-06-20T03:50:30.705Z,17.38
2019-06-20T03:55:33.998Z,17.17
2019-06-20T04:00:39.654Z,17.16
2019-06-20T04:05:33.340Z,16.95
2019-06-20T04:10:33.338Z,16.78
2019-06-20T04:15:42.051Z,16.70
2019-06-20T04:20:33.264Z,16.58
2019-06-20T04:30:33.244Z,16.69
2019-06-20T04:40:33.224Z,16.63
2019-06-20T04:50:33.509Z,16.72
2019-06-20T04:55:30.674Z,16.70
2019-06-20T05:00:31.281Z,16.90
2019-06-20T05:05:32.630Z,17.00
2019-06-20T05:10:36.450Z,17.22
2019-06-20T05:20:30.753Z,16.96
2019-06-20T05:25:30.637Z,16.98
2019-06-20T05:30:30.669Z,17.14
2019-06-20T05:35:30.650Z,17.36
2019-06-20T05:40:30.660Z,17.98
2019-06-20T05:45:33.149Z,18.48
2019-06-20T05:50:33.233Z,18.46
2019-06-20T06:00:33.391Z,18.78
2019-06-20T06:05:30.729Z,18.77
2019-06-20T06:10:30.771Z,18.92
2019-06-20T06:15:32.621Z,19.00
2019-06-20T06:20:30.722Z,18.99
2019-06-20T06:25:30.619Z,19.07
2019-06-20T06:30:31.326Z,19.19
2019-06-20T06:40:33.446Z,19.13
2019-06-20T06:50:30.926Z,19.06
2019-06-20T06:55:33.262Z,19.29
2019-06-20T07:00:32.235Z,19.51
2019-06-20T07:05:32.689Z,19.54
2019-06-20T07:10:33.273Z,19.84
2019-06-20T07:15:32.783Z,20.23
2019-06-20T07:20:30.783Z,20.42
2019-06-20T07:30:33.442Z,21.03
2019-06-20T07:40:30.670Z,20.76
2019-06-20T07:45:33.262Z,21.09
2019-06-20T07:50:33.146Z,21.23
2019-06-20T07:55:33.781Z,20.94
2019-06-20T08:00:31.537Z,21.01
2019-06-20T08:05:33.944Z,20.88
2019-06-20T08:10:30.785Z,21.01
2019-06-20T08:15:33.307Z,21.10
2019-06-20T08:20:30.807Z,21.35
2019-06-20T08:25:33.268Z,21.52
2019-06-20T08:30:35.214Z,21.81
2019-06-20T08:35:34.756Z,21.54
2019-06-20T08:40:36.409Z,21.95
2019-06-20T08:45:33.080Z,22.26
2019-06-20T08:50:33.900Z,22.59
2019-06-20T08:55:32.112Z,22.54
2019-06-20T09:00:32.946Z,22.35
2019-06-20T09:10:39.041Z,22.69
2019-06-20T09:20:30.903Z,23.19
2019-06-20T09:25:30.616Z,23.18
2019-06-20T09:30:33.300Z,23.66
2019-06-20T09:35:33.225Z,23.86
2019-06-20T09:40:32.661Z,23.63
2019-06-20T09:45:30.766Z,23.95
2019-06-20T09:50:32.194Z,24.40
2019-06-20T09:55:30.802Z,24.33
2019-06-20T10:00:32.158Z,23.88
2019-06-20T10:05:31.749Z,23.46
2019-06-20T10:10:33.723Z,22.96
2019-06-20T10:15:35.768Z,22.41
2019-06-20T10:20:32.832Z,22.21
2019-06-20T10:25:30.867Z,21.95
2019-06-20T10:30:33.357Z,21.86
2019-06-20T10:35:32.306Z,21.71
2019-06-20T10:40:33.736Z,21.59
2019-06-20T10:50:30.869Z,21.28
2019-06-20T11:00:32.754Z,20.18
2019-06-20T11:10:31.430Z,20.08
2019-06-20T11:25:36.952Z,19.24
2019-06-20T11:30:48.019Z,19.37
2019-06-20T11:35:37.770Z,19.46
2019-06-20T11:40:38.285Z,19.69
2019-06-20T11:45:38.922Z,19.19
2019-06-20T11:50:35.016Z,18.75
2019-06-20T11:55:34.327Z,18.77
2019-06-20T12:00:31.370Z,18.96
2019-06-20T12:05:35.139Z,18.72
2019-06-20T12:15:38.107Z,18.61
2019-06-20T12:30:38.387Z,17.58
2019-06-20T12:35:32.192Z,17.42
2019-06-20T12:40:33.323Z,17.18
2019-06-20T12:45:33.862Z,16.51
2019-06-20T12:50:30.772Z,16.28
2019-06-20T12:55:33.239Z,16.72
2019-06-20T13:00:35.399Z,16.58
2019-06-20T13:05:31.628Z,16.55
2019-06-20T13:10:30.667Z,16.62
2019-06-20T13:15:33.141Z,16.81
2019-06-20T13:20:33.703Z,17.06
2019-06-20T13:25:30.687Z,17.39
2019-06-20T13:30:30.754Z,17.39
2019-06-20T13:35:30.658Z,17.26
2019-06-20T13:40:30.864Z,17.39
2019-06-20T13:45:30.769Z,17.70
2019-06-20T13:50:30.631Z,18.11
2019-06-20T13:55:44.086Z,18.59
2019-06-20T14:00:36.322Z,18.87
2019-06-20T14:05:36.647Z,19.18
2019-06-20T14:10:33.764Z,19.51
2019-06-20T14:15:33.137Z,19.70
2019-06-20T14:20:33.138Z,20.24
2019-06-20T14:25:34.297Z,20.66
2019-06-20T14:30:34.134Z,20.71
2019-06-20T14:35:32.752Z,20.75
2019-06-20T14:40:30.641Z,20.07
2019-06-20T14:45:30.748Z,19.94
2019-06-20T14:50:35.279Z,19.68
2019-06-20T14:55:30.759Z,19.41
2019-06-20T15:00:31.287Z,19.15
2019-06-20T15:05:34.796Z,19.51
2019-06-20T15:10:31.085Z,19.31
2019-06-20T15:15:31.627Z,19.48
2019-06-20T15:20:33.206Z,19.29
2019-06-20T15:25:30.722Z,19.23
2019-06-20T15:30:30.701Z,19.38
2019-06-20T15:35:33.143Z,19.65
2019-06-20T15:40:33.903Z,19.98
2019-06-20T15:45:32.678Z,19.85
2019-06-20T15:50:32.730Z,19.93
2019-06-20T15:55:30.673Z,20.18
2019-06-20T16:00:32.811Z,20.53
2019-06-20T16:05:30.626Z,20.77
2019-06-20T16:10:33.202Z,20.86
2019-06-20T16:15:30.705Z,21.11
2019-06-20T16:20:37.044Z,21.27
2019-06-20T16:25:33.137Z,21.51
2019-06-20T16:35:33.137Z,21.44
2019-06-20T16:40:42.798Z,21.73
2019-06-20T16:45:30.848Z,21.62
2019-06-20T16:50:33.729Z,21.70
2019-06-20T16:55:33.772Z,21.78
2019-06-20T17:00:34.009Z,21.49
2019-06-20T17:05:31.742Z,21.49
2019-06-20T17:10:33.924Z,21.62
2019-06-20T17:15:33.303Z,21.47
2019-06-20T17:20:30.760Z,21.36
2019-06-20T17:25:33.280Z,21.10
2019-06-20T17:30:30.893Z,21.24
2019-06-20T17:35:30.823Z,21.37
2019-06-20T17:40:33.266Z,21.24
2019-06-20T17:45:33.167Z,21.43
2019-06-20T17:50:30.662Z,21.69
2019-06-20T17:55:30.737Z,21.55
2019-06-20T18:00:35.454Z,21.67
2019-06-20T18:05:33.205Z,21.49
2019-06-20T18:10:30.752Z,21.30
2019-06-20T18:15:34.036Z,21.07
2019-06-20T18:20:33.128Z,20.96
2019-06-20T18:25:31.776Z,20.98
2019-06-20T18:30:36.243Z,20.58
2019-06-20T18:35:33.174Z,20.59
2019-06-20T18:40:30.643Z,20.58
2019-06-20T18:45:30.713Z,20.62
2019-06-20T18:50:30.823Z,20.47
2019-06-20T18:55:35.636Z,20.02
2019-06-20T19:00:35.378Z,19.75
2019-06-20T19:05:31.665Z,19.76
2019-06-20T19:10:33.803Z,19.33
2019-06-20T19:15:43.443Z,19.06
2019-06-20T19:20:33.287Z,18.92
2019-06-20T19:25:32.672Z,19.07
2019-06-20T19:30:42.862Z,19.23
2019-06-20T19:40:36.710Z,18.58
2019-06-20T19:50:30.716Z,18.76
2019-06-20T20:00:34.467Z,18.03
2019-06-20T20:10:36.238Z,17.79
2019-06-20T20:20:30.867Z,17.72
2019-06-20T20:30:33.267Z,17.83
2019-06-20T20:40:32.624Z,17.12
2019-06-20T20:50:30.828Z,16.93
2019-06-20T21:00:36.723Z,16.85
2019-06-20T21:10:33.255Z,16.84
2019-06-20T21:20:33.695Z,16.69
2019-06-20T21:30:31.152Z,17.15
2019-06-20T21:40:30.616Z,17.93
2019-06-20T21:50:33.188Z,17.83
2019-06-20T22:00:43.251Z,17.58
2019-06-20T22:15:33.799Z,16.93
2019-06-20T22:30:36.530Z,16.45
2019-06-20T22:40:30.713Z,16.46
2019-06-20T22:50:30.742Z,16.23
2019-06-20T23:00:31.484Z,16.79
2019-06-20T23:10:30.824Z,17.49
2019-06-20T23:20:30.741Z,17.05
2019-06-20T23:30:30.658Z,16.49
2019-06-20T23:40:30.757Z,16.61
2019-06-20T23:50:38.607Z,16.08
